»·PEaware :: N53398 KLAX-KSAN

N53398 :: KLAX-KSAN

FLIGHT INFORMATION

Flight Status: Arrived
Operator: Privately registered:
United States
More flights under this callsign
Pilot: Justin K. (31642)
Aircraft: Diamond DA-62
(DA62)
More flights by this aircraft type
Origin: KLAX Los Angeles Intl
United States
Destination: KSAN San Diego Intl-Lindbergh
United States
More flights between these airports :: More routes between these airports
Route: KLAX KSAN
File this flight plan on PilotEdge
Remarks:
Altitude:
(Current/Filed)
7,500ft
Speed:
(Current/Filed)
120kts
Departed: 21-Nov-20 02:18 PM
Arrived: 21-Nov-20 03:04 PM
Distance/Time
Traveled:
95nm/0:46
Distance/Time
To Go:
Arrived

Flight Plot

Page will automatically refresh every two minutes.


Map Options




Map Legend


Flown Route
Filed Route
Departure Airport
Arrival Airport
Navaid (VOR, NDB)
Fix

Horizontal Profiles

Position Reports

Time Latitude Longitude Heading Altitude Ground
Speed
21-Nov-20 14:00 33.933005 -118.402922 174 120ft 0kts
21-Nov-20 14:01 33.933005 -118.402922 174 120ft 0kts
21-Nov-20 14:03 33.933005 -118.402922 174 120ft 0kts
21-Nov-20 14:04 33.933005 -118.402922 174 120ft 0kts
21-Nov-20 14:05 33.933005 -118.402922 174 120ft 0kts
21-Nov-20 14:06 33.933005 -118.402922 174 120ft 0kts
21-Nov-20 14:07 33.933005 -118.402922 174 120ft 0kts
21-Nov-20 14:08 33.932999 -118.402792 359 120ft 0kts
21-Nov-20 14:09 33.932999 -118.402792 359 120ft 0kts
21-Nov-20 14:10 33.934390 -118.399834 83 120ft 28kts
21-Nov-20 14:11 33.935349 -118.390271 82 120ft 34kts
21-Nov-20 14:12 33.936381 -118.382819 15 119ft 0kts
21-Nov-20 14:13 33.936381 -118.382819 15 119ft 0kts
21-Nov-20 14:14 33.936381 -118.382819 15 119ft 0kts
21-Nov-20 14:15 33.936381 -118.382820 15 119ft 0kts
21-Nov-20 14:16 33.936381 -118.382819 15 119ft 0kts
21-Nov-20 14:17 33.937261 -118.383945 265 119ft 29kts
21-Nov-20 14:17 33.933974 -118.410460 257 493ft 131kts
21-Nov-20 14:19 33.905956 -118.440759 183 1765ft 139kts
21-Nov-20 14:19 33.872133 -118.431690 141 2208ft 155kts
21-Nov-20 14:20 33.834150 -118.402174 165 2470ft 175kts
21-Nov-20 14:22 33.777714 -118.410727 179 2684ft 161kts
21-Nov-20 14:22 33.747085 -118.387124 121 3143ft 164kts
21-Nov-20 14:24 33.718330 -118.331188 121 3456ft 169kts
21-Nov-20 14:24 33.697781 -118.291255 121 3875ft 168kts
21-Nov-20 14:26 33.669288 -118.235349 121 4460ft 168kts
21-Nov-20 14:26 33.649062 -118.195115 121 4878ft 169kts
21-Nov-20 14:27 33.624830 -118.146458 121 5337ft 172kts
21-Nov-20 14:28 33.599735 -118.095775 121 5416ft 183kts
21-Nov-20 14:29 33.577086 -118.042830 125 5739ft 173kts
21-Nov-20 14:30 33.544337 -118.001653 142 6255ft 170kts
21-Nov-20 14:31 33.508214 -117.965157 141 6755ft 172kts
21-Nov-20 14:32 33.471567 -117.928050 141 7254ft 173kts
21-Nov-20 14:33 33.433582 -117.889628 141 7392ft 183kts
21-Nov-20 14:34 33.394363 -117.850010 141 7399ft 185kts
21-Nov-20 14:35 33.355404 -117.810705 141 7400ft 185kts
21-Nov-20 14:36 33.316265 -117.771267 141 7401ft 185kts
21-Nov-20 14:37 33.277099 -117.731848 141 7402ft 186kts
21-Nov-20 14:38 33.240570 -117.695099 141 7382ft 134kts
21-Nov-20 14:39 33.211982 -117.666432 141 7422ft 150kts
21-Nov-20 14:40 33.183128 -117.637469 142 7400ft 129kts
21-Nov-20 14:41 33.156466 -117.610742 142 7406ft 126kts
21-Nov-20 14:42 33.128098 -117.582323 141 6984ft 141kts
21-Nov-20 14:43 33.098747 -117.552880 141 6425ft 117kts
21-Nov-20 14:44 33.076778 -117.525078 114 5635ft 118kts
21-Nov-20 14:45 33.059035 -117.474899 112 5338ft 179kts
21-Nov-20 14:46 33.037495 -117.430966 145 4817ft 156kts
21-Nov-20 14:47 32.998277 -117.400722 130 4853ft 179kts
21-Nov-20 14:48 32.975685 -117.353137 109 4755ft 144kts
21-Nov-20 14:49 32.992239 -117.345822 272 4682ft 125kts
21-Nov-20 14:50 33.015949 -117.366845 4 4906ft 106kts
21-Nov-20 14:51 33.008894 -117.336197 128 3923ft 169kts
21-Nov-20 14:52 32.983019 -117.303386 135 2842ft 132kts
21-Nov-20 14:53 32.957046 -117.269977 134 1869ft 133kts
21-Nov-20 14:54 32.923436 -117.256571 169 2084ft 138kts
21-Nov-20 14:55 32.895429 -117.289811 248 2446ft 163kts
21-Nov-20 14:56 32.870596 -117.333224 185 2725ft 174kts
21-Nov-20 14:57 32.824186 -117.312363 157 2589ft 181kts
21-Nov-20 14:58 32.786074 -117.274411 124 2255ft 175kts
21-Nov-20 14:59 32.774888 -117.226612 97 1371ft 142kts
21-Nov-20 15:00 32.754552 -117.194512 136 1078ft 126kts
21-Nov-20 15:01 32.741809 -117.159992 127 956ft 106kts
21-Nov-20 15:02 32.730299 -117.176322 286 93ft 80kts
21-Nov-20 15:03 32.734084 -117.188068 11 16ft 0kts
21-Nov-20 15:04 32.734084 -117.188068 11 16ft 0kts

Navigation Log

Ident Type
Flight plan parsing failed, navigation log unavailable